Time;durP1;ratioP1;P1;durP2;ratioP2;P2;SDS_P1;SDS_P2;PMS_P1;PMS_P2;Temp;Humidity;BMP_temperature;BMP_pressure;BME280_temperature;BME280_humidity;BME280_pressure;Samples;Min_cycle;Max_cycle;Signal;HPM_P1;HPM_P2
2022/03/25 00:05:58;;;;;;;30.38;17.25;;;7.60;99.90;;;;;;12429319;28;20049;-79
2022/03/25 00:12:00;;;;;;;31.17;17.02;;;7.40;99.90;;;;;;12433103;28;20525;-79
2022/03/25 00:18:02;;;;;;;27.02;14.77;;;7.50;99.90;;;;;;12432671;28;20049;-81
2022/03/25 00:24:05;;;;;;;27.17;12.50;;;7.50;99.90;;;;;;12433890;28;21241;-79
2022/03/25 00:30:08;;;;;;;25.50;13.73;;;7.20;99.90;;;;;;12431520;28;21070;-81
2022/03/25 00:36:10;;;;;;;32.28;16.85;;;7.10;99.90;;;;;;12428991;28;20060;-79
2022/03/25 00:42:13;;;;;;;33.70;16.35;;;7.00;99.90;;;;;;12436296;28;20053;-80
2022/03/25 00:48:15;;;;;;;26.88;14.13;;;7.00;99.90;;;;;;12435400;28;20049;-80
2022/03/25 00:54:17;;;;;;;30.17;14.30;;;6.90;99.90;;;;;;12431273;28;20049;-80
2022/03/25 01:00:20;;;;;;;28.17;13.07;;;6.50;99.90;;;;;;12447286;28;20054;-80
2022/03/25 01:06:24;;;;;;;26.23;13.55;;;6.40;99.90;;;;;;12439059;28;20062;-79
2022/03/25 01:12:26;;;;;;;33.88;16.73;;;6.50;99.90;;;;;;12429154;28;20041;-81
2022/03/25 01:18:29;;;;;;;34.10;17.13;;;6.30;99.90;;;;;;12433110;28;20050;-79
2022/03/25 01:24:32;;;;;;;30.85;18.35;;;6.30;99.90;;;;;;12432840;28;20815;-79
2022/03/25 01:30:35;;;;;;;33.90;18.98;;;6.30;99.90;;;;;;12427983;28;20483;-80
2022/03/25 01:36:37;;;;;;;35.03;18.58;;;6.00;99.90;;;;;;12426077;28;20065;-81
2022/03/25 01:42:41;;;;;;;31.85;17.38;;;6.10;99.90;;;;;;12430735;28;20064;-81
2022/03/25 01:48:43;;;;;;;;;;;6.10;99.90;;;;;;12429824;28;20045;-80
2022/03/25 01:54:46;;;;;;;31.20;16.05;;;6.00;99.90;;;;;;12428099;28;19925;-80
2022/03/25 02:00:48;;;;;;;31.65;17.17;;;5.90;99.90;;;;;;12431322;28;20577;-81
2022/03/25 02:06:52;;;;;;;34.17;16.67;;;5.80;99.90;;;;;;12424742;28;20050;-79
2022/03/25 02:12:56;;;;;;;36.25;18.85;;;5.90;99.90;;;;;;12442020;28;20052;-81
2022/03/25 02:18:58;;;;;;;33.65;15.70;;;5.90;99.90;;;;;;12436848;28;20781;-79
2022/03/25 02:25:03;;;;;;;31.48;16.27;;;6.10;99.90;;;;;;12436870;28;20046;-80
2022/03/25 02:31:05;;;;;;;32.80;16.57;;;6.00;99.90;;;;;;12423646;28;20063;-81
2022/03/25 02:37:07;;;;;;;30.02;15.65;;;5.90;99.90;;;;;;12426340;28;20054;-79
2022/03/25 02:43:11;;;;;;;29.33;15.02;;;6.10;99.90;;;;;;12426602;28;20482;-80
2022/03/25 02:49:13;;;;;;;29.73;16.60;;;6.10;99.90;;;;;;12420140;28;20539;-79
2022/03/25 02:55:15;;;;;;;27.63;13.57;;;6.00;99.90;;;;;;12430917;28;20051;-81
2022/03/25 03:01:18;;;;;;;28.02;14.50;;;5.80;99.90;;;;;;12427432;28;20163;-80
2022/03/25 03:07:21;;;;;;;33.88;17.02;;;5.80;99.90;;;;;;12427260;28;20041;-80
2022/03/25 03:13:23;;;;;;;32.38;16.95;;;5.60;99.90;;;;;;12430067;28;21019;-81
2022/03/25 03:19:25;;;;;;;32.80;16.17;;;5.70;99.90;;;;;;12418835;28;20058;-81
2022/03/25 03:25:27;;;;;;;31.80;15.45;;;5.70;99.90;;;;;;12413579;28;20567;-81
2022/03/25 03:31:29;;;;;;;27.65;15.00;;;5.70;99.90;;;;;;12448654;28;20033;-80
2022/03/25 03:37:31;;;;;;;26.50;13.63;;;5.60;99.90;;;;;;12439024;28;20099;-80
2022/03/25 03:43:33;;;;;;;32.42;15.50;;;5.50;99.90;;;;;;12424893;28;20054;-80
2022/03/25 03:49:35;;;;;;;31.52;15.10;;;5.20;99.90;;;;;;12421972;28;20065;-79
2022/03/25 03:55:37;;;;;;;25.30;12.00;;;5.10;99.90;;;;;;12411825;28;20073;-80
2022/03/25 04:01:39;;;;;;;30.88;14.60;;;5.20;99.90;;;;;;12411893;28;20099;-79
2022/03/25 04:07:46;;;;;;;28.10;13.32;;;5.30;99.90;;;;;;12421564;28;20050;-81
2022/03/25 04:13:47;;;;;;;27.95;14.23;;;5.10;99.90;;;;;;12432365;28;20502;-80
2022/03/25 04:19:50;;;;;;;27.52;14.32;;;5.30;99.90;;;;;;12426688;28;20119;-81
2022/03/25 04:25:51;;;;;;;29.63;14.57;;;5.30;99.90;;;;;;12426900;28;20042;-80
2022/03/25 04:31:53;;;;;;;29.90;14.32;;;5.00;99.90;;;;;;12429303;28;20153;-80
2022/03/25 04:37:56;;;;;;;26.13;13.60;;;5.10;99.90;;;;;;12432128;28;20057;-81
2022/03/25 04:43:58;;;;;;;29.63;14.05;;;4.90;99.90;;;;;;12446403;28;20137;-79
2022/03/25 04:50:00;;;;;;;26.35;14.82;;;5.00;99.90;;;;;;12458352;28;20053;-79
2022/03/25 04:56:02;;;;;;;27.38;14.00;;;5.00;99.90;;;;;;12453603;28;20081;-80
2022/03/25 05:02:04;;;;;;;28.65;13.77;;;5.00;99.90;;;;;;12429349;28;20501;-79
2022/03/25 05:08:06;;;;;;;25.55;13.35;;;5.00;99.90;;;;;;12420129;28;20057;-80
2022/03/25 05:14:08;;;;;;;28.35;13.70;;;5.10;99.90;;;;;;12420718;28;20127;-81
2022/03/25 05:20:11;;;;;;;25.90;13.60;;;5.10;99.90;;;;;;12419913;28;20160;-81
2022/03/25 05:26:13;;;;;;;26.67;15.05;;;5.00;99.90;;;;;;12429522;28;20115;-81
2022/03/25 05:32:15;;;;;;;31.10;14.13;;;5.10;99.90;;;;;;12421013;28;20145;-80
2022/03/25 05:38:17;;;;;;;31.50;13.43;;;5.00;99.90;;;;;;12418208;28;20060;-80
2022/03/25 05:44:19;;;;;;;27.75;13.88;;;5.10;99.90;;;;;;12430016;28;20046;-79
2022/03/25 05:50:21;;;;;;;30.63;14.75;;;5.10;99.90;;;;;;12422376;28;20505;-80
2022/03/25 05:56:23;;;;;;;31.23;15.27;;;5.30;99.90;;;;;;12427402;28;20517;-79
2022/03/25 06:02:26;;;;;;;25.00;14.77;;;5.30;99.90;;;;;;12431700;28;20544;-80
2022/03/25 06:08:28;;;;;;;32.08;15.70;;;5.30;99.90;;;;;;12441041;28;20053;-80
2022/03/25 06:14:30;;;;;;;33.55;16.92;;;5.40;99.90;;;;;;12463425;28;20099;-79
2022/03/25 06:20:31;;;;;;;33.50;16.30;;;5.50;99.90;;;;;;12428189;28;20125;-81
2022/03/25 06:26:33;;;;;;;34.20;18.13;;;5.60;99.90;;;;;;12426600;28;20050;-81
2022/03/25 06:32:36;;;;;;;34.60;18.55;;;5.80;99.90;;;;;;12433590;28;20092;-82
2022/03/25 06:38:38;;;;;;;32.03;18.30;;;6.00;99.90;;;;;;12431169;28;20144;-80
2022/03/25 06:44:39;;;;;;;44.42;21.40;;;6.30;99.90;;;;;;12434429;28;20046;-80
2022/03/25 06:50:41;;;;;;;39.00;19.42;;;6.30;99.90;;;;;;12432307;28;20077;-80
2022/03/25 06:56:43;;;;;;;33.97;18.08;;;6.30;99.90;;;;;;12430696;28;20053;-81
2022/03/25 07:02:46;;;;;;;30.00;17.27;;;6.60;99.90;;;;;;12427777;28;20682;-79
2022/03/25 07:08:54;;;;;;;37.20;18.70;;;6.90;99.90;;;;;;12429829;28;20041;-79
2022/03/25 07:14:56;;;;;;;37.13;19.95;;;7.20;99.90;;;;;;12434480;28;20073;-80
2022/03/25 07:21:02;;;;;;;30.75;18.88;;;7.30;99.90;;;;;;12429200;28;20053;-81
2022/03/25 07:27:04;;;;;;;35.45;19.60;;;7.40;99.90;;;;;;12450687;28;20121;-81
2022/03/25 07:33:06;;;;;;;41.55;21.15;;;7.50;99.90;;;;;;12442015;28;20096;-79
2022/03/25 07:39:11;;;;;;;36.70;19.92;;;7.50;99.90;;;;;;12426771;28;20540;-81
2022/03/25 07:45:14;;;;;;;39.47;20.33;;;7.70;99.90;;;;;;12432001;28;20404;-81
2022/03/25 07:51:17;;;;;;;37.50;19.88;;;7.60;99.90;;;;;;12436278;28;20140;-80
2022/03/25 07:57:19;;;;;;;34.75;18.38;;;7.70;99.90;;;;;;12428036;28;20526;-80
2022/03/25 08:03:21;;;;;;;34.72;19.95;;;8.10;99.90;;;;;;12426182;28;20081;-80
2022/03/25 08:09:23;;;;;;;33.70;19.75;;;8.40;99.90;;;;;;12431055;28;20475;-82
2022/03/25 08:15:27;;;;;;;32.38;18.60;;;8.70;99.90;;;;;;12425796;28;20089;-80
2022/03/25 08:21:29;;;;;;;34.22;19.60;;;9.00;99.90;;;;;;12425098;28;20053;-80
2022/03/25 08:27:49;;;;;;;36.42;20.05;;;9.20;99.90;;;;;;12429260;28;20486;-82
2022/03/25 08:33:51;;;;;;;36.45;19.48;;;9.40;99.90;;;;;;12427614;28;20344;-81
2022/03/25 08:39:53;;;;;;;29.25;17.73;;;9.60;99.90;;;;;;12424316;28;20061;-80
2022/03/25 08:45:55;;;;;;;32.05;16.33;;;9.80;99.90;;;;;;12427564;28;20103;-81
2022/03/25 08:51:57;;;;;;;27.83;14.57;;;10.20;99.90;;;;;;12437216;28;20049;-81
2022/03/25 08:57:59;;;;;;;24.17;13.95;;;10.50;99.90;;;;;;12456212;28;20509;-82
2022/03/25 09:04:01;;;;;;;30.33;15.50;;;10.70;99.90;;;;;;12434576;28;20144;-82
2022/03/25 09:10:04;;;;;;;27.85;17.17;;;11.00;99.90;;;;;;12421206;28;20049;-81
2022/03/25 09:16:07;;;;;;;27.70;16.15;;;11.30;99.90;;;;;;12424590;28;20171;-82
2022/03/25 09:22:10;;;;;;;29.90;15.90;;;11.50;99.90;;;;;;12425318;28;20049;-81
2022/03/25 09:28:12;;;;;;;30.52;15.40;;;11.90;99.90;;;;;;12431261;28;20053;-81
2022/03/25 09:40:35;;;;;;;24.30;14.57;;;12.40;99.90;;;;;;12419746;28;20046;-81
2022/03/25 09:46:41;;;;;;;24.02;13.75;;;12.70;99.90;;;;;;12414010;28;20092;-81
2022/03/25 09:52:44;;;;;;;26.33;14.48;;;13.10;99.90;;;;;;12431538;28;20052;-83
2022/03/25 09:59:07;;;;;;;21.38;11.15;;;13.40;99.90;;;;;;12423933;28;20527;-83
2022/03/25 10:05:17;;;;;;;19.05;10.63;;;13.90;99.90;;;;;;12429630;28;20073;-83
2022/03/25 10:11:25;;;;;;;23.80;12.20;;;14.30;99.90;;;;;;12427856;28;20041;-83
2022/03/25 10:17:27;;;;;;;25.92;12.82;;;14.50;99.90;;;;;;12464517;28;20245;-81
2022/03/25 10:23:30;;;;;;;26.40;15.07;;;14.70;99.90;;;;;;12470792;28;20062;-83
2022/03/25 10:29:34;;;;;;;31.35;15.63;;;15.10;99.90;;;;;;12428655;28;20108;-81
2022/03/25 10:35:53;;;;;;;29.33;16.25;;;15.30;99.90;;;;;;12442617;28;20069;-83
2022/03/25 10:42:01;;;;;;;28.70;16.38;;;15.40;99.90;;;;;;12430714;28;20062;-83
2022/03/25 10:48:21;;;;;;;24.00;14.68;;;15.70;99.90;;;;;;12431362;28;20050;-81
2022/03/25 10:54:25;;;;;;;30.42;17.25;;;15.70;99.90;;;;;;12429404;28;20148;-81
2022/03/25 11:00:27;;;;;;;29.20;16.75;;;15.70;99.90;;;;;;12431165;28;20940;-81
2022/03/25 11:06:32;;;;;;;26.90;16.98;;;16.10;99.90;;;;;;12429191;28;20054;-83
2022/03/25 11:12:34;;;;;;;31.48;17.95;;;16.40;99.90;;;;;;12427386;28;20529;-83
2022/03/25 11:18:41;;;;;;;32.72;19.20;;;16.50;99.90;;;;;;12430767;28;20049;-82
2022/03/25 11:24:50;;;;;;;29.10;18.88;;;16.70;99.90;;;;;;12437477;28;20111;-84
2022/03/25 11:31:04;;;;;;;28.45;17.40;;;16.70;99.90;;;;;;12428045;28;20042;-84
2022/03/25 11:37:21;;;;;;;33.83;20.90;;;16.60;99.90;;;;;;12440342;28;20069;-84
2022/03/25 11:43:28;;;;;;;29.98;20.45;;;16.70;99.90;;;;;;12436751;28;20606;-83
2022/03/25 11:49:38;;;;;;;33.33;20.70;;;16.90;99.90;;;;;;12432182;28;20058;-82
2022/03/25 11:56:01;;;;;;;30.52;20.85;;;16.50;99.90;;;;;;12425970;28;20054;-81
2022/03/25 12:02:32;;;;;;;37.65;21.95;;;16.70;99.90;;;;;;12432011;28;20126;-81
2022/03/25 12:08:35;;;;;;;33.15;20.70;;;16.80;99.90;;;;;;12426987;28;21016;-81
2022/03/25 12:15:11;;;;;;;36.65;20.58;;;16.80;99.90;;;;;;12422815;28;20072;-84
2022/03/25 12:21:25;;;;;;;31.25;20.13;;;16.90;99.90;;;;;;12428246;28;20084;-83
2022/03/25 12:27:26;;;;;;;;;;;17.50;99.90;;;;;;12425072;28;20562;-84
2022/03/25 12:33:28;;;;;;;30.15;19.65;;;16.70;99.90;;;;;;12426369;28;19972;-84
2022/03/25 12:39:30;;;;;;;29.20;19.85;;;17.10;99.90;;;;;;12431806;28;20057;-84
2022/03/25 12:45:44;;;;;;;27.38;18.48;;;16.90;99.90;;;;;;12427997;28;20111;-81
2022/03/25 12:51:57;;;;;;;34.13;19.20;;;17.20;99.90;;;;;;12429252;28;20049;-81
2022/03/25 12:58:13;;;;;;;29.60;19.50;;;17.10;99.90;;;;;;12434471;28;20137;-81
2022/03/25 13:04:25;;;;;;;30.52;18.88;;;17.60;99.90;;;;;;12426088;28;20516;-83
2022/03/25 13:10:28;;;;;;;32.47;19.65;;;17.60;99.90;;;;;;12418248;28;20065;-81
2022/03/25 13:16:30;;;;;;;31.70;18.45;;;17.80;99.90;;;;;;12423267;28;20057;-84
2022/03/25 13:22:32;;;;;;;30.60;19.10;;;17.10;99.90;;;;;;12423109;28;20757;-81
2022/03/25 13:28:41;;;;;;;33.78;18.88;;;17.00;99.90;;;;;;12424973;28;20057;-84
2022/03/25 13:34:43;;;;;;;27.10;17.95;;;17.30;99.90;;;;;;12417365;28;20041;-81
2022/03/25 13:40:56;;;;;;;37.95;19.38;;;17.30;99.90;;;;;;12410629;28;20061;-84
2022/03/25 13:47:08;;;;;;;31.15;19.55;;;17.00;99.90;;;;;;12428528;28;20103;-84
2022/03/25 13:53:10;;;;;;;33.20;19.50;;;17.10;99.90;;;;;;12420741;28;20475;-81
2022/03/25 13:59:24;;;;;;;31.80;20.17;;;16.80;99.90;;;;;;12426342;28;20046;-84
2022/03/25 14:05:26;;;;;;;33.33;20.17;;;16.70;99.90;;;;;;12428957;28;20149;-81
2022/03/25 14:11:34;;;;;;;29.50;18.83;;;16.60;99.90;;;;;;12452916;28;20048;-81
2022/03/25 14:17:38;;;;;;;27.25;16.77;;;16.80;99.90;;;;;;12429261;28;20424;-84
2022/03/25 14:23:40;;;;;;;26.77;17.60;;;16.80;99.90;;;;;;12431518;28;20506;-83
2022/03/25 14:29:42;;;;;;;30.98;19.08;;;16.80;99.90;;;;;;12428732;28;20124;-83
2022/03/25 14:35:44;;;;;;;35.35;19.73;;;16.80;99.90;;;;;;12420176;28;20054;-82
2022/03/25 14:41:46;;;;;;;35.63;20.48;;;16.80;99.90;;;;;;12425439;28;20132;-82
2022/03/25 14:47:51;;;;;;;32.60;20.80;;;16.70;99.90;;;;;;12422154;28;20050;-83
2022/03/25 14:53:53;;;;;;;33.78;20.23;;;16.40;99.90;;;;;;12435003;28;20053;-83
2022/03/25 14:59:54;;;;;;;33.20;20.35;;;16.50;99.90;;;;;;12429997;28;20065;-83
2022/03/25 15:05:57;;;;;;;32.17;19.73;;;16.50;99.90;;;;;;12425540;28;20426;-83
2022/03/25 15:11:58;;;;;;;33.30;20.55;;;16.30;99.90;;;;;;12430590;28;20073;-81
2022/03/25 15:18:02;;;;;;;32.30;18.65;;;16.50;99.90;;;;;;12430590;28;20506;-81
2022/03/25 15:24:04;;;;;;;36.07;20.70;;;16.80;99.90;;;;;;12429660;28;20058;-84
2022/03/25 15:36:27;;;;;;;30.40;18.02;;;16.60;99.90;;;;;;12442324;28;20049;-83
2022/03/25 15:42:45;;;;;;;33.65;20.30;;;16.40;99.90;;;;;;12440513;28;20046;-81
2022/03/25 15:48:49;;;;;;;35.88;20.42;;;16.50;99.90;;;;;;12436185;28;20128;-81
2022/03/25 15:54:52;;;;;;;31.38;19.15;;;16.30;99.90;;;;;;12429747;28;20050;-83
2022/03/25 16:00:54;;;;;;;34.20;20.80;;;16.10;99.90;;;;;;12423999;28;20129;-80
2022/03/25 16:06:57;;;;;;;33.28;20.23;;;16.40;99.90;;;;;;12421964;28;20556;-81
2022/03/25 16:13:01;;;;;;;27.70;18.13;;;16.50;99.90;;;;;;12423664;28;20100;-84
2022/03/25 16:19:03;;;;;;;30.95;21.02;;;16.60;99.90;;;;;;12421186;28;20506;-84
2022/03/25 16:25:06;;;;;;;32.10;20.27;;;16.40;99.90;;;;;;12431509;28;20076;-80
2022/03/25 16:31:08;;;;;;;30.92;19.10;;;16.10;99.90;;;;;;12405674;28;20111;-83
2022/03/25 16:37:10;;;;;;;32.67;21.65;;;16.10;99.90;;;;;;12434680;28;20112;-81
2022/03/25 16:43:13;;;;;;;35.78;22.05;;;15.80;99.90;;;;;;12434937;28;20456;-83
2022/03/25 16:49:15;;;;;;;38.80;21.23;;;15.40;99.90;;;;;;12424833;28;20166;-83
2022/03/25 16:55:17;;;;;;;30.67;19.00;;;15.30;99.90;;;;;;12426058;28;20080;-80
2022/03/25 17:01:19;;;;;;;36.08;20.55;;;15.10;99.90;;;;;;12424895;28;20060;-81
2022/03/25 17:07:22;;;;;;;30.92;18.88;;;15.10;99.90;;;;;;12422344;28;20089;-81
2022/03/25 17:13:24;;;;;;;28.05;18.73;;;14.70;99.90;;;;;;12426893;28;20818;-81
2022/03/25 17:19:26;;;;;;;28.15;16.65;;;14.50;99.90;;;;;;12432132;28;20543;-81
2022/03/25 17:25:27;;;;;;;27.63;16.45;;;14.30;99.90;;;;;;12452761;28;20192;-81
2022/03/25 17:31:30;;;;;;;33.38;16.98;;;13.90;99.90;;;;;;12431114;28;20072;-81
2022/03/25 17:37:32;;;;;;;33.00;17.30;;;13.60;99.90;;;;;;12425598;28;20057;-83
2022/03/25 17:43:34;;;;;;;32.25;16.17;;;13.30;99.90;;;;;;12418260;28;20049;-80
2022/03/25 17:49:36;;;;;;;29.25;15.75;;;13.00;99.90;;;;;;12424505;28;20053;-83
2022/03/25 17:55:39;;;;;;;31.05;16.45;;;12.80;99.90;;;;;;12425173;28;20076;-83
2022/03/25 18:01:41;;;;;;;29.25;16.70;;;12.60;99.90;;;;;;12435241;28;20502;-83
2022/03/25 18:07:43;;;;;;;32.67;17.40;;;12.50;99.90;;;;;;12417234;28;20080;-80
2022/03/25 18:13:48;;;;;;;27.52;16.25;;;12.30;99.90;;;;;;12423772;28;21050;-80
2022/03/25 18:19:50;;;;;;;34.58;17.20;;;12.00;99.90;;;;;;12422530;28;20061;-80
2022/03/25 18:25:52;;;;;;;31.83;17.10;;;11.80;99.90;;;;;;12430047;28;20058;-81
2022/03/25 18:31:54;;;;;;;30.60;16.83;;;11.60;99.90;;;;;;12434965;28;20048;-82
2022/03/25 18:37:57;;;;;;;33.28;17.33;;;11.50;99.90;;;;;;12446366;28;20140;-82
2022/03/25 18:43:59;;;;;;;29.25;17.13;;;11.20;99.90;;;;;;12443456;28;20485;-80
2022/03/25 18:50:01;;;;;;;34.22;18.83;;;11.00;99.90;;;;;;12436630;28;20065;-82
2022/03/25 18:56:03;;;;;;;28.95;17.50;;;10.90;99.90;;;;;;12428067;28;20049;-82
2022/03/25 19:02:06;;;;;;;33.03;18.40;;;10.80;99.90;;;;;;12432835;28;20172;-80
2022/03/25 19:08:09;;;;;;;41.10;18.37;;;10.60;99.90;;;;;;12428239;28;20107;-82
2022/03/25 19:14:13;;;;;;;31.75;17.83;;;10.50;99.90;;;;;;12430096;28;20052;-80
2022/03/25 19:20:15;;;;;;;33.45;18.27;;;10.40;99.90;;;;;;12426709;28;20112;-81
2022/03/25 19:26:17;;;;;;;29.73;16.67;;;10.30;99.90;;;;;;12428681;28;20410;-82
2022/03/25 19:32:20;;;;;;;32.75;17.85;;;10.30;99.90;;;;;;12424930;28;20049;-82
2022/03/25 19:38:22;;;;;;;34.65;18.45;;;10.20;99.90;;;;;;12429989;28;20093;-81
2022/03/25 19:44:25;;;;;;;32.40;17.52;;;10.00;99.90;;;;;;12426152;28;20059;-80
2022/03/25 19:50:27;;;;;;;34.25;18.30;;;10.00;99.90;;;;;;12430743;28;20049;-79
2022/03/25 19:56:32;;;;;;;34.75;18.33;;;9.80;99.90;;;;;;12427922;28;20052;-79
2022/03/25 20:02:36;;;;;;;35.55;19.05;;;9.70;99.90;;;;;;12432388;28;20583;-79
2022/03/25 20:08:39;;;;;;;32.53;18.45;;;9.80;99.90;;;;;;12435558;28;20136;-81
2022/03/25 20:14:46;;;;;;;37.33;19.40;;;9.90;99.90;;;;;;12457828;28;20251;-81
2022/03/25 20:20:48;;;;;;;41.92;20.90;;;9.80;99.90;;;;;;12439647;28;20048;-80
2022/03/25 20:26:51;;;;;;;46.28;20.60;;;9.80;99.90;;;;;;12429922;28;20114;-79
2022/03/25 20:32:53;;;;;;;37.70;19.02;;;9.80;99.90;;;;;;12426256;28;20103;-80
2022/03/25 20:38:56;;;;;;;43.88;20.65;;;9.80;99.90;;;;;;12426152;28;20073;-81
2022/03/25 20:44:58;;;;;;;36.55;18.80;;;9.80;99.90;;;;;;12425187;28;20045;-81
2022/03/25 20:51:01;;;;;;;35.92;18.80;;;9.70;99.90;;;;;;12425562;28;20060;-79
2022/03/25 20:57:06;;;;;;;36.03;18.80;;;9.70;99.90;;;;;;12421775;28;20521;-79
2022/03/25 21:03:08;;;;;;;34.45;18.65;;;9.70;99.90;;;;;;12422818;28;20548;-79
2022/03/25 21:09:11;;;;;;;36.80;18.27;;;9.60;99.90;;;;;;12425815;28;20107;-79
2022/03/25 21:15:13;;;;;;;33.65;18.60;;;9.60;99.90;;;;;;12425560;28;20045;-79
2022/03/25 21:21:16;;;;;;;35.05;18.67;;;9.60;99.90;;;;;;12426795;28;20136;-80
2022/03/25 21:27:17;;;;;;;36.13;18.90;;;9.40;99.90;;;;;;12435383;28;20071;-79
2022/03/25 21:33:20;;;;;;;34.50;18.80;;;9.40;99.90;;;;;;12428870;28;20050;-79
2022/03/25 21:39:24;;;;;;;35.97;16.58;;;9.30;99.90;;;;;;12433150;28;20107;-81
2022/03/25 21:45:29;;;;;;;28.73;16.42;;;9.30;99.90;;;;;;12458776;28;20057;-79
2022/03/25 21:51:31;;;;;;;30.95;16.17;;;9.30;99.90;;;;;;12432046;28;20041;-78
2022/03/25 21:57:33;;;;;;;37.00;17.15;;;9.20;99.90;;;;;;12422717;28;20065;-79
2022/03/25 22:03:34;;;;;;;31.48;17.23;;;9.20;99.90;;;;;;12421485;28;20063;-81
2022/03/25 22:09:36;;;;;;;30.95;15.95;;;9.10;99.90;;;;;;12424264;28;20058;-81
2022/03/25 22:15:38;;;;;;;29.27;15.30;;;9.00;99.90;;;;;;12423268;28;20122;-81
2022/03/25 22:21:41;;;;;;;26.60;13.80;;;8.90;99.90;;;;;;12420084;28;20567;-80
2022/03/25 22:27:43;;;;;;;31.08;14.02;;;8.90;99.90;;;;;;12423241;28;20053;-81
2022/03/25 22:33:45;;;;;;;29.23;13.90;;;8.90;99.90;;;;;;12421603;28;20046;-79
2022/03/25 22:39:47;;;;;;;31.55;13.38;;;8.80;99.90;;;;;;12417943;28;20521;-81
2022/03/25 22:45:49;;;;;;;26.27;13.82;;;8.80;99.90;;;;;;12421654;28;20058;-81
2022/03/25 22:51:51;;;;;;;24.60;13.15;;;8.80;99.90;;;;;;12433025;28;20793;-81
2022/03/25 22:57:53;;;;;;;27.05;14.35;;;8.50;99.90;;;;;;12418416;28;20107;-78
2022/03/25 23:03:56;;;;;;;26.42;14.32;;;8.50;99.90;;;;;;12426376;28;20498;-78
2022/03/25 23:09:58;;;;;;;25.58;14.70;;;8.30;99.90;;;;;;12436332;28;20053;-81
2022/03/25 23:16:00;;;;;;;29.38;14.48;;;8.20;99.90;;;;;;12423252;28;20085;-79
2022/03/25 23:22:02;;;;;;;22.88;13.43;;;8.00;99.90;;;;;;12433633;28;20566;-78
2022/03/25 23:28:06;;;;;;;28.08;14.43;;;8.10;99.90;;;;;;12427079;28;20049;-80
2022/03/25 23:34:08;;;;;;;33.53;14.60;;;8.10;99.90;;;;;;12428684;28;20046;-79
2022/03/25 23:40:11;;;;;;;29.23;13.32;;;8.20;99.90;;;;;;12428811;28;20065;-80
2022/03/25 23:46:14;;;;;;;28.60;12.75;;;8.20;99.90;;;;;;12428352;28;20139;-81
2022/03/25 23:52:16;;;;;;;26.20;12.65;;;8.20;99.90;;;;;;12428781;28;20046;-80
2022/03/25 23:58:18;;;;;;;21.58;11.80;;;8.30;99.90;;;;;;12437701;28;20557;-81
